sensor_id;sensor_type;location;lat;lon;timestamp;pressure;altitude;pressure_sealevel;temperature;humidity
31771;BME280;18343;50.152;8.182;2023-04-28T00:01:48;97242.00;;;13.36;60.57
31771;BME280;18343;50.152;8.182;2023-04-28T00:04:37;97234.53;;;13.31;60.79
31771;BME280;18343;50.152;8.182;2023-04-28T00:07:24;97232.66;;;13.32;61.06
31771;BME280;18343;50.152;8.182;2023-04-28T00:10:10;97220.59;;;13.34;61.04
31771;BME280;18343;50.152;8.182;2023-04-28T00:12:55;97223.50;;;13.33;61.43
31771;BME280;18343;50.152;8.182;2023-04-28T00:15:41;97218.53;;;13.30;61.13
31771;BME280;18343;50.152;8.182;2023-04-28T00:18:28;97205.06;;;13.23;60.87
31771;BME280;18343;50.152;8.182;2023-04-28T00:21:16;97210.66;;;13.21;60.49
31771;BME280;18343;50.152;8.182;2023-04-28T00:24:01;97204.84;;;13.25;60.63
31771;BME280;18343;50.152;8.182;2023-04-28T00:26:49;97199.41;;;13.31;60.70
31771;BME280;18343;50.152;8.182;2023-04-28T00:29:34;97190.25;;;13.39;60.72
31771;BME280;18343;50.152;8.182;2023-04-28T00:32:19;97183.72;;;13.46;60.46
31771;BME280;18343;50.152;8.182;2023-04-28T00:35:06;97193.03;;;13.57;60.54
31771;BME280;18343;50.152;8.182;2023-04-28T00:37:51;97194.66;;;13.65;60.45
31771;BME280;18343;50.152;8.182;2023-04-28T00:40:37;97189.19;;;13.71;60.37
31771;BME280;18343;50.152;8.182;2023-04-28T00:43:23;97192.50;;;13.73;60.03
31771;BME280;18343;50.152;8.182;2023-04-28T00:46:10;97198.28;;;13.77;59.88
31771;BME280;18343;50.152;8.182;2023-04-28T00:49:01;97182.25;;;13.82;59.63
31771;BME280;18343;50.152;8.182;2023-04-28T00:51:49;97174.97;;;13.82;59.11
31771;BME280;18343;50.152;8.182;2023-04-28T00:54:33;97177.03;;;13.87;59.29
31771;BME280;18343;50.152;8.182;2023-04-28T00:57:18;97168.25;;;13.92;59.74
31771;BME280;18343;50.152;8.182;2023-04-28T01:00:05;97168.63;;;13.95;59.24
31771;BME280;18343;50.152;8.182;2023-04-28T01:02:49;97154.53;;;13.93;59.26
31771;BME280;18343;50.152;8.182;2023-04-28T01:05:36;97155.72;;;13.97;59.31
31771;BME280;18343;50.152;8.182;2023-04-28T01:08:28;97149.03;;;14.00;59.66
31771;BME280;18343;50.152;8.182;2023-04-28T01:11:14;97137.84;;;13.96;59.66
31771;BME280;18343;50.152;8.182;2023-04-28T01:13:59;97136.56;;;13.99;59.85
31771;BME280;18343;50.152;8.182;2023-04-28T01:16:44;97137.25;;;13.94;60.12
31771;BME280;18343;50.152;8.182;2023-04-28T01:19:29;97138.75;;;13.90;59.72
31771;BME280;18343;50.152;8.182;2023-04-28T01:22:14;97129.63;;;13.84;60.53
31771;BME280;18343;50.152;8.182;2023-04-28T01:25:00;97124.06;;;13.79;60.18
31771;BME280;18343;50.152;8.182;2023-04-28T01:27:45;97125.53;;;13.75;60.65
31771;BME280;18343;50.152;8.182;2023-04-28T01:30:30;97135.75;;;13.73;61.23
31771;BME280;18343;50.152;8.182;2023-04-28T01:33:15;97138.56;;;13.60;62.35
31771;BME280;18343;50.152;8.182;2023-04-28T01:36:00;97139.03;;;13.50;61.92
31771;BME280;18343;50.152;8.182;2023-04-28T01:38:45;97135.72;;;13.48;61.96
31771;BME280;18343;50.152;8.182;2023-04-28T01:41:31;97138.66;;;13.47;62.53
31771;BME280;18343;50.152;8.182;2023-04-28T01:44:16;97139.97;;;13.38;62.76
31771;BME280;18343;50.152;8.182;2023-04-28T01:47:01;97138.97;;;13.32;63.01
31771;BME280;18343;50.152;8.182;2023-04-28T01:49:46;97135.25;;;13.27;63.39
31771;BME280;18343;50.152;8.182;2023-04-28T01:52:32;97140.47;;;13.21;64.07
31771;BME280;18343;50.152;8.182;2023-04-28T01:55:36;97143.16;;;13.21;63.72
31771;BME280;18343;50.152;8.182;2023-04-28T01:58:22;97126.56;;;13.18;64.70
31771;BME280;18343;50.152;8.182;2023-04-28T02:01:07;97132.19;;;13.16;65.26
31771;BME280;18343;50.152;8.182;2023-04-28T02:03:52;97133.22;;;13.15;65.54
31771;BME280;18343;50.152;8.182;2023-04-28T02:06:37;97133.66;;;13.12;65.59
31771;BME280;18343;50.152;8.182;2023-04-28T02:09:22;97129.28;;;13.11;66.19
31771;BME280;18343;50.152;8.182;2023-04-28T02:12:08;97127.03;;;13.08;66.75
31771;BME280;18343;50.152;8.182;2023-04-28T02:14:54;97129.50;;;13.10;66.55
31771;BME280;18343;50.152;8.182;2023-04-28T02:17:41;97127.03;;;13.08;67.03
31771;BME280;18343;50.152;8.182;2023-04-28T02:20:26;97126.19;;;13.08;67.29
31771;BME280;18343;50.152;8.182;2023-04-28T02:23:10;97123.72;;;13.06;67.93
31771;BME280;18343;50.152;8.182;2023-04-28T02:26:00;97113.13;;;13.05;67.82
31771;BME280;18343;50.152;8.182;2023-04-28T02:28:45;97109.81;;;13.03;68.78
31771;BME280;18343;50.152;8.182;2023-04-28T02:31:31;97106.06;;;13.04;68.70
31771;BME280;18343;50.152;8.182;2023-04-28T02:34:16;97107.34;;;13.01;69.15
31771;BME280;18343;50.152;8.182;2023-04-28T02:37:01;97111.50;;;12.97;70.05
31771;BME280;18343;50.152;8.182;2023-04-28T02:39:46;97102.56;;;12.97;70.17
31771;BME280;18343;50.152;8.182;2023-04-28T02:42:31;97101.56;;;12.91;70.51
31771;BME280;18343;50.152;8.182;2023-04-28T02:45:16;97096.59;;;12.88;71.20
31771;BME280;18343;50.152;8.182;2023-04-28T02:48:03;97097.88;;;12.85;71.38
31771;BME280;18343;50.152;8.182;2023-04-28T02:50:48;97094.09;;;12.86;71.76
31771;BME280;18343;50.152;8.182;2023-04-28T02:53:33;97094.34;;;12.85;71.18
31771;BME280;18343;50.152;8.182;2023-04-28T02:56:17;97085.03;;;12.81;72.00
31771;BME280;18343;50.152;8.182;2023-04-28T02:59:02;97082.13;;;12.82;73.14
31771;BME280;18343;50.152;8.182;2023-04-28T03:01:47;97083.78;;;12.83;73.61
31771;BME280;18343;50.152;8.182;2023-04-28T03:04:36;97084.13;;;12.87;73.64
31771;BME280;18343;50.152;8.182;2023-04-28T03:07:20;97061.50;;;12.88;74.79
31771;BME280;18343;50.152;8.182;2023-04-28T03:10:07;97061.06;;;12.91;74.64
31771;BME280;18343;50.152;8.182;2023-04-28T03:12:51;97068.34;;;12.91;74.88
31771;BME280;18343;50.152;8.182;2023-04-28T03:15:36;97074.34;;;12.93;75.47
31771;BME280;18343;50.152;8.182;2023-04-28T03:18:21;97062.13;;;12.90;76.06
31771;BME280;18343;50.152;8.182;2023-04-28T03:21:07;97046.34;;;12.87;76.07
31771;BME280;18343;50.152;8.182;2023-04-28T03:23:52;97040.13;;;12.86;76.83
31771;BME280;18343;50.152;8.182;2023-04-28T03:26:37;97038.50;;;12.85;76.86
31771;BME280;18343;50.152;8.182;2023-04-28T03:29:22;97043.06;;;12.85;77.11
31771;BME280;18343;50.152;8.182;2023-04-28T03:32:07;97028.16;;;12.82;77.94
31771;BME280;18343;50.152;8.182;2023-04-28T03:34:51;97032.97;;;12.74;75.63
31771;BME280;18343;50.152;8.182;2023-04-28T03:38:07;97024.56;;;12.57;77.74
31771;BME280;18343;50.152;8.182;2023-04-28T03:40:52;97023.31;;;12.53;79.04
31771;BME280;18343;50.152;8.182;2023-04-28T03:43:36;97022.50;;;12.52;78.75
31771;BME280;18343;50.152;8.182;2023-04-28T03:46:21;97019.00;;;12.45;79.19
31771;BME280;18343;50.152;8.182;2023-04-28T03:49:06;97007.59;;;12.43;80.59
31771;BME280;18343;50.152;8.182;2023-04-28T03:51:51;97009.25;;;12.44;79.49
31771;BME280;18343;50.152;8.182;2023-04-28T03:54:37;96998.47;;;12.44;80.15
31771;BME280;18343;50.152;8.182;2023-04-28T03:57:22;97006.75;;;12.43;81.19
31771;BME280;18343;50.152;8.182;2023-04-28T04:00:09;96995.97;;;12.43;80.69
31771;BME280;18343;50.152;8.182;2023-04-28T04:02:54;97000.97;;;12.39;81.08
31771;BME280;18343;50.152;8.182;2023-04-28T04:05:39;96988.94;;;12.35;80.69
31771;BME280;18343;50.152;8.182;2023-04-28T04:08:25;96982.94;;;12.33;80.15
31771;BME280;18343;50.152;8.182;2023-04-28T04:11:34;97003.19;;;12.04;83.15
31771;BME280;18343;50.152;8.182;2023-04-28T04:14:26;96999.44;;;12.12;82.43
31771;BME280;18343;50.152;8.182;2023-04-28T04:17:10;96998.59;;;12.18;82.94
31771;BME280;18343;50.152;8.182;2023-04-28T04:19:55;97005.81;;;12.24;82.91
31771;BME280;18343;50.152;8.182;2023-04-28T04:22:39;97007.88;;;12.29;83.24
31771;BME280;18343;50.152;8.182;2023-04-28T04:25:24;97013.06;;;12.30;83.21
31771;BME280;18343;50.152;8.182;2023-04-28T04:28:11;97004.31;;;12.35;83.06
31771;BME280;18343;50.152;8.182;2023-04-28T04:30:55;97003.53;;;12.28;83.81
31771;BME280;18343;50.152;8.182;2023-04-28T04:34:05;97010.56;;;12.29;83.22
31771;BME280;18343;50.152;8.182;2023-04-28T04:36:53;97003.91;;;12.31;84.19
31771;BME280;18343;50.152;8.182;2023-04-28T04:40:07;97010.56;;;12.29;83.02
31771;BME280;18343;50.152;8.182;2023-04-28T04:43:00;97013.91;;;12.24;83.74
31771;BME280;18343;50.152;8.182;2023-04-28T04:45:47;97011.03;;;12.19;84.03
31771;BME280;18343;50.152;8.182;2023-04-28T04:48:31;97019.94;;;12.19;84.24
31771;BME280;18343;50.152;8.182;2023-04-28T04:51:19;97018.50;;;12.17;84.55
31771;BME280;18343;50.152;8.182;2023-04-28T04:54:04;97011.03;;;12.19;85.07
31771;BME280;18343;50.152;8.182;2023-04-28T04:56:49;97011.84;;;12.19;85.58
31771;BME280;18343;50.152;8.182;2023-04-28T04:59:36;97017.22;;;12.26;85.71
31771;BME280;18343;50.152;8.182;2023-04-28T05:02:22;97011.00;;;12.26;85.14
31771;BME280;18343;50.152;8.182;2023-04-28T05:05:08;97000.63;;;12.23;85.74
31771;BME280;18343;50.152;8.182;2023-04-28T05:07:57;97007.91;;;12.22;85.97
31771;BME280;18343;50.152;8.182;2023-04-28T05:10:41;97001.47;;;12.23;86.72
31771;BME280;18343;50.152;8.182;2023-04-28T05:13:27;97008.09;;;12.27;87.04
31771;BME280;18343;50.152;8.182;2023-04-28T05:16:11;97000.44;;;12.24;87.60
31771;BME280;18343;50.152;8.182;2023-04-28T05:18:58;96998.78;;;12.23;88.26
31771;BME280;18343;50.152;8.182;2023-04-28T05:21:43;97007.91;;;12.22;88.35
31771;BME280;18343;50.152;8.182;2023-04-28T05:24:29;97000.03;;;12.20;88.58
31771;BME280;18343;50.152;8.182;2023-04-28T05:27:17;97001.06;;;12.19;88.37
31771;BME280;18343;50.152;8.182;2023-04-28T05:30:26;96995.25;;;12.16;87.71
31771;BME280;18343;50.152;8.182;2023-04-28T05:33:30;97004.00;;;12.11;89.14
31771;BME280;18343;50.152;8.182;2023-04-28T05:36:21;97009.41;;;12.05;89.38
31771;BME280;18343;50.152;8.182;2023-04-28T05:39:09;97009.63;;;12.03;90.14
31771;BME280;18343;50.152;8.182;2023-04-28T05:41:54;97025.41;;;12.00;89.44
31771;BME280;18343;50.152;8.182;2023-04-28T05:44:38;97014.63;;;11.93;89.88
31771;BME280;18343;50.152;8.182;2023-04-28T05:47:23;97023.78;;;11.66;91.97
31771;BME280;18343;50.152;8.182;2023-04-28T05:50:09;97005.34;;;11.69;91.79
31771;BME280;18343;50.152;8.182;2023-04-28T05:52:55;97012.16;;;11.72;92.02
31771;BME280;18343;50.152;8.182;2023-04-28T05:55:40;97012.78;;;11.74;92.21
31771;BME280;18343;50.152;8.182;2023-04-28T05:58:25;97017.75;;;11.70;92.47
31771;BME280;18343;50.152;8.182;2023-04-28T06:01:09;97013.22;;;11.64;92.88
31771;BME280;18343;50.152;8.182;2023-04-28T06:03:54;97017.78;;;11.64;92.93
31771;BME280;18343;50.152;8.182;2023-04-28T06:06:39;97009.47;;;11.65;93.54
31771;BME280;18343;50.152;8.182;2023-04-28T06:09:25;97011.13;;;11.66;93.89
31771;BME280;18343;50.152;8.182;2023-04-28T06:12:10;97010.09;;;11.67;94.36
31771;BME280;18343;50.152;8.182;2023-04-28T06:14:55;97019.84;;;11.68;95.77
31771;BME280;18343;50.152;8.182;2023-04-28T06:17:41;97026.69;;;11.64;94.63
31771;BME280;18343;50.152;8.182;2023-04-28T06:20:25;97015.28;;;11.62;95.38
31771;BME280;18343;50.152;8.182;2023-04-28T06:23:10;97023.97;;;11.64;96.05
31771;BME280;18343;50.152;8.182;2023-04-28T06:25:56;97011.13;;;11.53;97.04
31771;BME280;18343;50.152;8.182;2023-04-28T06:28:41;96999.34;;;11.54;96.54
31771;BME280;18343;50.152;8.182;2023-04-28T06:31:25;97006.38;;;11.62;97.15
31771;BME280;18343;50.152;8.182;2023-04-28T06:34:10;97018.38;;;11.66;97.72
31771;BME280;18343;50.152;8.182;2023-04-28T06:36:55;97011.13;;;11.73;98.01
31771;BME280;18343;50.152;8.182;2023-04-28T06:39:40;97011.75;;;11.81;98.79
31771;BME280;18343;50.152;8.182;2023-04-28T06:42:27;97014.22;;;11.90;98.69
31771;BME280;18343;50.152;8.182;2023-04-28T06:45:11;97010.28;;;11.99;98.88
31771;BME280;18343;50.152;8.182;2023-04-28T06:47:56;97008.19;;;12.01;99.06
31771;BME280;18343;50.152;8.182;2023-04-28T06:50:41;97000.72;;;12.03;98.81
31771;BME280;18343;50.152;8.182;2023-04-28T06:53:32;97000.09;;;12.01;100.00
31771;BME280;18343;50.152;8.182;2023-04-28T06:56:17;96995.97;;;11.92;100.00
31771;BME280;18343;50.152;8.182;2023-04-28T06:59:03;96998.88;;;11.97;100.00
31771;BME280;18343;50.152;8.182;2023-04-28T07:01:48;96980.19;;;12.02;100.00
31771;BME280;18343;50.152;8.182;2023-04-28T07:04:36;96988.25;;;12.08;100.00
31771;BME280;18343;50.152;8.182;2023-04-28T07:07:20;96989.47;;;12.12;100.00
31771;BME280;18343;50.152;8.182;2023-04-28T07:10:07;96986.56;;;12.14;100.00
31771;BME280;18343;50.152;8.182;2023-04-28T07:12:52;96978.66;;;12.19;100.00
31771;BME280;18343;50.152;8.182;2023-04-28T07:15:39;96974.50;;;12.23;100.00
31771;BME280;18343;50.152;8.182;2023-04-28T07:18:23;96973.28;;;12.19;100.00
31771;BME280;18343;50.152;8.182;2023-04-28T07:21:08;96975.75;;;12.27;100.00
31771;BME280;18343;50.152;8.182;2023-04-28T07:23:53;96983.56;;;12.35;100.00
31771;BME280;18343;50.152;8.182;2023-04-28T07:26:40;96974.03;;;12.33;100.00
31771;BME280;18343;50.152;8.182;2023-04-28T07:29:25;96971.91;;;12.41;100.00
31771;BME280;18343;50.152;8.182;2023-04-28T07:32:11;96972.09;;;12.46;100.00
31771;BME280;18343;50.152;8.182;2023-04-28T07:34:56;96980.38;;;12.51;100.00
31771;BME280;18343;50.152;8.182;2023-04-28T07:37:41;96981.44;;;12.50;100.00
31771;BME280;18343;50.152;8.182;2023-04-28T07:40:26;96983.50;;;12.48;100.00
31771;BME280;18343;50.152;8.182;2023-04-28T07:43:10;96973.97;;;12.46;100.00
31771;BME280;18343;50.152;8.182;2023-04-28T07:45:55;96987.06;;;12.42;100.00
31771;BME280;18343;50.152;8.182;2023-04-28T07:48:42;96981.06;;;12.34;100.00
31771;BME280;18343;50.152;8.182;2023-04-28T07:51:27;97000.22;;;12.26;100.00
31771;BME280;18343;50.152;8.182;2023-04-28T07:54:12;97003.75;;;12.26;100.00
31771;BME280;18343;50.152;8.182;2023-04-28T07:56:57;97007.94;;;12.09;100.00
31771;BME280;18343;50.152;8.182;2023-04-28T07:59:41;97015.06;;;11.90;100.00
31771;BME280;18343;50.152;8.182;2023-04-28T08:02:27;97015.91;;;11.77;100.00
31771;BME280;18343;50.152;8.182;2023-04-28T08:05:13;97010.09;;;11.80;100.00
31771;BME280;18343;50.152;8.182;2023-04-28T08:07:58;97009.25;;;11.80;100.00
31771;BME280;18343;50.152;8.182;2023-04-28T08:10:42;97022.31;;;11.83;100.00
31771;BME280;18343;50.152;8.182;2023-04-28T08:13:27;97016.28;;;11.88;100.00
31771;BME280;18343;50.152;8.182;2023-04-28T08:16:12;97019.00;;;11.81;100.00
31771;BME280;18343;50.152;8.182;2023-04-28T08:18:57;97016.94;;;11.83;100.00
31771;BME280;18343;50.152;8.182;2023-04-28T08:21:44;97017.13;;;11.95;100.00
31771;BME280;18343;50.152;8.182;2023-04-28T08:24:28;97014.81;;;11.98;100.00
31771;BME280;18343;50.152;8.182;2023-04-28T08:27:13;97022.03;;;12.04;100.00
31771;BME280;18343;50.152;8.182;2023-04-28T08:29:58;97006.13;;;11.90;100.00
31771;BME280;18343;50.152;8.182;2023-04-28T08:32:52;97021.88;;;11.86;100.00
31771;BME280;18343;50.152;8.182;2023-04-28T08:35:37;97030.38;;;11.96;100.00
31771;BME280;18343;50.152;8.182;2023-04-28T08:38:24;97024.97;;;12.03;100.00
31771;BME280;18343;50.152;8.182;2023-04-28T08:41:12;97030.13;;;12.11;100.00
31771;BME280;18343;50.152;8.182;2023-04-28T08:43:58;97024.72;;;12.17;100.00
31771;BME280;18343;50.152;8.182;2023-04-28T08:46:45;97027.19;;;12.19;100.00
31771;BME280;18343;50.152;8.182;2023-04-28T08:49:34;97029.66;;;12.27;100.00
31771;BME280;18343;50.152;8.182;2023-04-28T08:52:32;97033.81;;;12.30;100.00
31771;BME280;18343;50.152;8.182;2023-04-28T08:55:19;97030.88;;;12.31;100.00
31771;BME280;18343;50.152;8.182;2023-04-28T08:58:05;97024.19;;;12.47;100.00
31771;BME280;18343;50.152;8.182;2023-04-28T09:00:52;97018.88;;;12.65;100.00
31771;BME280;18343;50.152;8.182;2023-04-28T09:03:37;97023.78;;;12.81;100.00
31771;BME280;18343;50.152;8.182;2023-04-28T09:06:22;97027.63;;;12.99;100.00
31771;BME280;18343;50.152;8.182;2023-04-28T09:09:21;97030.63;;;13.15;100.00
31771;BME280;18343;50.152;8.182;2023-04-28T09:12:07;97026.97;;;13.35;100.00
31771;BME280;18343;50.152;8.182;2023-04-28T09:14:57;97037.66;;;13.48;100.00
31771;BME280;18343;50.152;8.182;2023-04-28T09:17:49;97030.72;;;13.59;100.00
31771;BME280;18343;50.152;8.182;2023-04-28T09:20:37;97024.56;;;13.70;100.00
31771;BME280;18343;50.152;8.182;2023-04-28T09:23:24;97024.06;;;13.79;100.00
31771;BME280;18343;50.152;8.182;2023-04-28T09:26:09;97026.50;;;13.87;100.00
31771;BME280;18343;50.152;8.182;2023-04-28T09:29:12;97022.97;;;14.05;100.00
31771;BME280;18343;50.152;8.182;2023-04-28T09:32:12;97025.13;;;14.33;100.00
31771;BME280;18343;50.152;8.182;2023-04-28T09:34:58;97024.81;;;14.48;100.00
31771;BME280;18343;50.152;8.182;2023-04-28T09:37:43;97023.72;;;14.67;100.00
31771;BME280;18343;50.152;8.182;2023-04-28T09:40:28;97018.88;;;14.99;100.00
31771;BME280;18343;50.152;8.182;2023-04-28T09:43:23;97015.31;;;15.29;100.00
31771;BME280;18343;50.152;8.182;2023-04-28T09:46:09;97013.31;;;15.47;100.00
31771;BME280;18343;50.152;8.182;2023-04-28T09:49:00;97008.28;;;15.51;100.00
31771;BME280;18343;50.152;8.182;2023-04-28T09:51:45;97001.94;;;15.69;100.00
31771;BME280;18343;50.152;8.182;2023-04-28T09:54:30;97014.66;;;15.91;100.00
31771;BME280;18343;50.152;8.182;2023-04-28T09:57:17;97017.84;;;16.12;100.00
31771;BME280;18343;50.152;8.182;2023-04-28T10:00:03;97014.41;;;16.16;100.00
31771;BME280;18343;50.152;8.182;2023-04-28T10:02:50;97014.16;;;16.18;100.00
31771;BME280;18343;50.152;8.182;2023-04-28T10:05:36;97008.66;;;16.01;100.00
31771;BME280;18343;50.152;8.182;2023-04-28T10:08:22;97007.81;;;16.01;100.00
31771;BME280;18343;50.152;8.182;2023-04-28T10:11:08;97010.53;;;16.01;100.00
31771;BME280;18343;50.152;8.182;2023-04-28T10:13:53;97010.78;;;16.11;100.00
31771;BME280;18343;50.152;8.182;2023-04-28T10:16:38;96995.63;;;16.27;100.00
31771;BME280;18343;50.152;8.182;2023-04-28T10:19:24;96991.91;;;16.44;100.00
31771;BME280;18343;50.152;8.182;2023-04-28T10:22:28;96990.34;;;16.60;100.00
31771;BME280;18343;50.152;8.182;2023-04-28T10:25:26;96985.81;;;16.77;100.00
31771;BME280;18343;50.152;8.182;2023-04-28T10:28:11;96985.09;;;16.82;100.00
31771;BME280;18343;50.152;8.182;2023-04-28T10:31:09;96989.56;;;16.88;100.00
31771;BME280;18343;50.152;8.182;2023-04-28T10:33:54;96986.88;;;16.76;100.00
31771;BME280;18343;50.152;8.182;2023-04-28T10:36:50;96988.34;;;16.55;100.00
31771;BME280;18343;50.152;8.182;2023-04-28T10:39:36;96999.75;;;16.41;100.00
31771;BME280;18343;50.152;8.182;2023-04-28T10:42:50;97000.94;;;16.21;100.00
31771;BME280;18343;50.152;8.182;2023-04-28T10:45:58;96989.31;;;15.98;100.00
31771;BME280;18343;50.152;8.182;2023-04-28T10:49:04;96991.91;;;15.69;100.00
31771;BME280;18343;50.152;8.182;2023-04-28T10:51:50;96999.66;;;15.42;100.00
31771;BME280;18343;50.152;8.182;2023-04-28T10:54:35;97010.41;;;15.07;100.00
31771;BME280;18343;50.152;8.182;2023-04-28T10:57:20;97004.63;;;14.92;100.00
31771;BME280;18343;50.152;8.182;2023-04-28T11:00:32;97003.03;;;14.84;100.00
31771;BME280;18343;50.152;8.182;2023-04-28T11:03:48;97007.03;;;14.82;100.00
31771;BME280;18343;50.152;8.182;2023-04-28T11:06:38;97003.03;;;14.73;100.00
31771;BME280;18343;50.152;8.182;2023-04-28T11:09:47;97004.69;;;14.74;100.00
31771;BME280;18343;50.152;8.182;2023-04-28T11:12:32;96997.69;;;14.96;100.00
31771;BME280;18343;50.152;8.182;2023-04-28T11:15:17;96993.16;;;15.20;100.00
31771;BME280;18343;50.152;8.182;2023-04-28T11:18:03;96996.44;;;15.34;100.00
31771;BME280;18343;50.152;8.182;2023-04-28T11:20:56;96987.41;;;15.40;100.00
31771;BME280;18343;50.152;8.182;2023-04-28T11:23:41;96986.50;;;15.69;100.00
31771;BME280;18343;50.152;8.182;2023-04-28T11:26:28;96973.19;;;15.79;100.00
31771;BME280;18343;50.152;8.182;2023-04-28T11:29:13;96974.97;;;15.85;100.00
31771;BME280;18343;50.152;8.182;2023-04-28T11:32:01;96977.72;;;16.14;100.00
31771;BME280;18343;50.152;8.182;2023-04-28T11:34:51;96972.84;;;16.39;100.00
31771;BME280;18343;50.152;8.182;2023-04-28T11:37:35;96976.53;;;16.62;100.00
31771;BME280;18343;50.152;8.182;2023-04-28T11:40:21;96962.53;;;16.81;100.00
31771;BME280;18343;50.152;8.182;2023-04-28T11:43:09;96968.50;;;17.12;100.00
31771;BME280;18343;50.152;8.182;2023-04-28T11:45:54;96972.38;;;17.16;100.00
31771;BME280;18343;50.152;8.182;2023-04-28T11:48:39;96976.09;;;17.26;100.00
31771;BME280;18343;50.152;8.182;2023-04-28T11:51:34;96985.72;;;17.51;100.00
31771;BME280;18343;50.152;8.182;2023-04-28T11:54:21;96974.94;;;17.56;100.00
31771;BME280;18343;50.152;8.182;2023-04-28T11:57:06;96976.25;;;17.37;100.00
31771;BME280;18343;50.152;8.182;2023-04-28T11:59:52;96975.69;;;17.35;100.00
31771;BME280;18343;50.152;8.182;2023-04-28T12:02:37;96981.75;;;17.08;100.00
31771;BME280;18343;50.152;8.182;2023-04-28T12:05:25;96978.31;;;17.13;100.00
31771;BME280;18343;50.152;8.182;2023-04-28T12:08:10;96967.03;;;17.21;100.00
31771;BME280;18343;50.152;8.182;2023-04-28T12:11:07;96960.53;;;17.22;100.00
31771;BME280;18343;50.152;8.182;2023-04-28T12:14:05;96968.19;;;17.42;100.00
31771;BME280;18343;50.152;8.182;2023-04-28T12:16:52;96961.81;;;17.53;100.00
31771;BME280;18343;50.152;8.182;2023-04-28T12:19:43;96948.19;;;17.65;100.00
31771;BME280;18343;50.152;8.182;2023-04-28T12:22:28;96947.41;;;17.86;100.00
31771;BME280;18343;50.152;8.182;2023-04-28T12:25:15;96958.59;;;17.89;100.00
31771;BME280;18343;50.152;8.182;2023-04-28T12:28:02;96962.81;;;17.64;100.00
31771;BME280;18343;50.152;8.182;2023-04-28T12:30:47;96975.50;;;17.58;100.00
31771;BME280;18343;50.152;8.182;2023-04-28T12:33:34;96972.94;;;17.51;100.00
31771;BME280;18343;50.152;8.182;2023-04-28T12:36:22;96970.66;;;17.43;100.00
31771;BME280;18343;50.152;8.182;2023-04-28T12:39:13;96970.16;;;17.30;100.00
31771;BME280;18343;50.152;8.182;2023-04-28T12:41:59;96964.97;;;17.28;100.00
31771;BME280;18343;50.152;8.182;2023-04-28T12:44:44;96958.00;;;17.49;100.00
31771;BME280;18343;50.152;8.182;2023-04-28T12:47:29;96968.59;;;17.34;100.00
31771;BME280;18343;50.152;8.182;2023-04-28T12:50:16;96961.91;;;17.58;100.00
31771;BME280;18343;50.152;8.182;2023-04-28T12:53:20;96958.94;;;17.59;100.00
31771;BME280;18343;50.152;8.182;2023-04-28T12:56:05;96963.34;;;17.77;100.00
31771;BME280;18343;50.152;8.182;2023-04-28T12:58:50;96960.16;;;17.85;100.00
31771;BME280;18343;50.152;8.182;2023-04-28T13:01:36;96954.97;;;17.84;100.00
31771;BME280;18343;50.152;8.182;2023-04-28T13:04:21;96962.19;;;17.73;100.00
31771;BME280;18343;50.152;8.182;2023-04-28T13:07:07;96961.44;;;17.78;100.00
31771;BME280;18343;50.152;8.182;2023-04-28T13:09:54;96958.16;;;17.76;100.00
31771;BME280;18343;50.152;8.182;2023-04-28T13:12:39;96959.28;;;17.63;100.00
31771;BME280;18343;50.152;8.182;2023-04-28T13:15:24;96956.47;;;17.58;100.00
31771;BME280;18343;50.152;8.182;2023-04-28T13:18:08;96963.44;;;17.49;100.00
31771;BME280;18343;50.152;8.182;2023-04-28T13:20:53;96963.75;;;17.36;100.00
31771;BME280;18343;50.152;8.182;2023-04-28T13:23:39;96960.53;;;17.39;100.00
31771;BME280;18343;50.152;8.182;2023-04-28T13:26:24;96961.28;;;17.17;100.00
31771;BME280;18343;50.152;8.182;2023-04-28T13:29:10;96963.22;;;16.88;100.00
31771;BME280;18343;50.152;8.182;2023-04-28T13:31:55;96969.81;;;16.92;100.00
31771;BME280;18343;50.152;8.182;2023-04-28T13:34:39;96960.34;;;16.95;100.00
31771;BME280;18343;50.152;8.182;2023-04-28T13:37:24;96947.25;;;16.92;100.00
31771;BME280;18343;50.152;8.182;2023-04-28T13:40:11;96954.97;;;16.83;100.00
31771;BME280;18343;50.152;8.182;2023-04-28T13:42:56;96954.28;;;16.76;100.00
31771;BME280;18343;50.152;8.182;2023-04-28T13:45:41;96953.16;;;16.61;100.00
31771;BME280;18343;50.152;8.182;2023-04-28T13:48:26;96954.31;;;16.36;100.00
31771;BME280;18343;50.152;8.182;2023-04-28T13:51:10;96954.16;;;16.43;100.00
31771;BME280;18343;50.152;8.182;2023-04-28T13:53:56;96948.19;;;16.41;100.00
31771;BME280;18343;50.152;8.182;2023-04-28T13:56:41;96939.63;;;16.49;100.00
31771;BME280;18343;50.152;8.182;2023-04-28T13:59:26;96938.66;;;16.55;100.00
31771;BME280;18343;50.152;8.182;2023-04-28T14:02:11;96928.28;;;16.64;100.00
31771;BME280;18343;50.152;8.182;2023-04-28T14:04:58;96911.75;;;16.82;100.00
31771;BME280;18343;50.152;8.182;2023-04-28T14:07:43;96912.53;;;17.11;100.00
31771;BME280;18343;50.152;8.182;2023-04-28T14:10:28;96909.53;;;17.29;100.00
31771;BME280;18343;50.152;8.182;2023-04-28T14:13:14;96916.56;;;17.42;100.00
31771;BME280;18343;50.152;8.182;2023-04-28T14:15:59;96926.34;;;17.26;100.00
31771;BME280;18343;50.152;8.182;2023-04-28T14:18:45;96920.22;;;17.52;100.00
31771;BME280;18343;50.152;8.182;2023-04-28T14:21:30;96919.91;;;17.66;100.00
31771;BME280;18343;50.152;8.182;2023-04-28T14:24:15;96916.75;;;17.57;100.00
31771;BME280;18343;50.152;8.182;2023-04-28T14:27:00;96916.13;;;17.50;100.00
31771;BME280;18343;50.152;8.182;2023-04-28T14:29:46;96893.31;;;17.34;100.00
31771;BME280;18343;50.152;8.182;2023-04-28T14:32:31;96908.72;;;17.29;100.00
31771;BME280;18343;50.152;8.182;2023-04-28T14:35:17;96902.97;;;17.08;100.00
31771;BME280;18343;50.152;8.182;2023-04-28T14:38:02;96900.25;;;17.08;100.00
31771;BME280;18343;50.152;8.182;2023-04-28T14:40:47;96888.09;;;16.94;100.00